KRSW/RSW METAR and TAF weather

Enter ICAO airport designator
Station Type Date Time Source
KRSW METAR 2019/12/07 16:53 UTC NOAA

KRSW 071653Z 03004KT 10SM CLR 23/12 A3016 RMK AO2 SLP209 T02330122


Station Type Date Time Source
KRSW Decoded METAR 2019/12/07 16:53 UTC NOAA

FORT MYERS SW FL INTERNATIONAL AIRPORT , FL, United States (KRSW) 26-32N 081-46W 9M
Dec 07, 2019 - 11:53 AM EST / 2019.12.07 1653 UTC
Wind: from the NNE (030 degrees) at 5 MPH (4 KT):0
Visibility: 10 mile(s):0
Sky conditions: clear
Temperature: 73.9 F (23.3 C)
Dew Point: 54.0 F (12.2 C)
Relative Humidity: 49%
Pressure (altimeter): 30.16 in. Hg (1021 hPa)
ob: KRSW 071653Z 03004KT 10SM CLR 23/12 A3016 RMK AO2 SLP209 T02330122
cycle: 17

Station Type Date Time Source
KRSW TAF 2019/12/07 18:24 UTC NOAA

TAF KRSW 071721Z 0718/0818 04005KT P6SM SCT100
FM072000 32005KT P6SM BKN100
FM080200 06003KT P6SM BKN100
FM081500 09007KT P6SM SCT030 SCT100

Example: see airport list